createdAt,value
2023-01-27T00:04:46.928Z,24.44
2023-01-27T00:09:54.149Z,24.29
2023-01-27T00:15:01.303Z,24.19
2023-01-27T00:20:08.495Z,24.04
2023-01-27T00:25:15.689Z,23.91
2023-01-27T00:30:22.855Z,23.84
2023-01-27T00:35:30.099Z,23.71
2023-01-27T00:40:37.365Z,23.56
2023-01-27T00:45:44.501Z,23.41
2023-01-27T00:50:51.709Z,23.29
2023-01-27T00:55:58.925Z,23.14
2023-01-27T01:01:06.202Z,23.04
2023-01-27T01:06:13.369Z,22.87
2023-01-27T01:11:20.554Z,22.72
2023-01-27T01:16:27.790Z,22.56
2023-01-27T01:21:34.915Z,22.48
2023-01-27T01:26:42.125Z,22.38
2023-01-27T01:31:49.334Z,22.26
2023-01-27T01:36:56.455Z,22.16
2023-01-27T01:42:03.670Z,22.03
2023-01-27T01:47:10.941Z,21.94
2023-01-27T01:52:18.112Z,21.85
2023-01-27T01:57:25.331Z,21.75
2023-01-27T02:02:32.570Z,21.64
2023-01-27T02:07:39.777Z,21.56
2023-01-27T02:12:47.049Z,21.49
2023-01-27T02:17:54.279Z,21.40
2023-01-27T02:23:01.609Z,21.32
2023-01-27T02:28:08.768Z,21.24
2023-01-27T02:33:15.939Z,21.17
2023-01-27T02:38:23.083Z,21.12
2023-01-27T02:43:30.288Z,21.03
2023-01-27T02:48:37.448Z,20.99
2023-01-27T02:53:44.733Z,20.95
2023-01-27T02:58:51.961Z,20.89
2023-01-27T03:03:59.119Z,20.82
2023-01-27T03:09:06.355Z,20.76
2023-01-27T03:14:13.607Z,20.71
2023-01-27T03:19:20.878Z,20.64
2023-01-27T03:24:28.169Z,20.55
2023-01-27T03:29:35.271Z,20.45
2023-01-27T03:34:42.413Z,20.40
2023-01-27T03:39:49.701Z,20.34
2023-01-27T03:44:56.907Z,20.28
2023-01-27T03:50:04.066Z,20.23
2023-01-27T03:55:11.699Z,20.22
2023-01-27T04:00:18.555Z,20.21
2023-01-27T04:05:25.949Z,20.19
2023-01-27T04:10:33.112Z,20.16
2023-01-27T04:15:40.353Z,20.13
2023-01-27T04:20:47.455Z,20.10
2023-01-27T04:25:54.665Z,20.07
2023-01-27T04:31:02.077Z,20.03
2023-01-27T04:36:09.122Z,19.98
2023-01-27T04:41:16.318Z,19.94
2023-01-27T04:46:23.537Z,19.90
2023-01-27T04:51:30.804Z,19.86
2023-01-27T04:56:38.050Z,19.81
2023-01-27T05:01:45.315Z,19.76
2023-01-27T05:06:52.447Z,19.72
2023-01-27T05:11:59.623Z,19.70
2023-01-27T05:17:07.137Z,19.68
2023-01-27T05:22:14.089Z,19.69
2023-01-27T05:27:21.295Z,19.70
2023-01-27T05:32:28.582Z,19.71
2023-01-27T05:37:35.755Z,19.71
2023-01-27T05:42:42.944Z,19.66
2023-01-27T05:47:50.131Z,19.64
2023-01-27T05:52:57.294Z,19.61
2023-01-27T05:58:04.483Z,19.58
2023-01-27T06:03:11.786Z,19.55
2023-01-27T06:08:18.947Z,19.51
2023-01-27T06:13:26.224Z,19.47
2023-01-27T06:18:33.589Z,19.45
2023-01-27T06:23:40.717Z,19.41
2023-01-27T06:28:47.874Z,19.37
2023-01-27T06:33:55.115Z,19.34
2023-01-27T06:39:02.265Z,19.33
2023-01-27T06:44:09.502Z,19.32
2023-01-27T06:49:16.746Z,19.32
2023-01-27T06:54:23.912Z,19.35
2023-01-27T06:59:31.172Z,19.36
2023-01-27T07:04:38.435Z,19.35
2023-01-27T07:09:52.464Z,19.33
2023-01-27T07:14:52.906Z,19.30
2023-01-27T07:20:00.184Z,19.27
2023-01-27T07:25:07.353Z,19.24
2023-01-27T07:30:15.130Z,19.20
2023-01-27T07:35:21.843Z,19.17
2023-01-27T07:40:29.160Z,19.14
2023-01-27T07:45:36.259Z,19.11
2023-01-27T07:50:43.397Z,19.07
2023-01-27T07:55:50.545Z,19.05
2023-01-27T08:00:57.814Z,19.04
2023-01-27T08:06:05.101Z,19.03
2023-01-27T08:11:12.344Z,19.08
2023-01-27T08:16:19.626Z,19.10
2023-01-27T08:21:26.785Z,19.18
2023-01-27T08:26:34.089Z,19.30
2023-01-27T08:31:41.498Z,19.51
2023-01-27T08:36:48.650Z,19.72
2023-01-27T08:41:55.788Z,19.86
2023-01-27T08:47:03.023Z,20.01
2023-01-27T08:52:10.390Z,20.21
2023-01-27T08:57:17.554Z,20.41
2023-01-27T09:02:24.691Z,20.59
2023-01-27T09:07:31.909Z,20.72
2023-01-27T09:12:39.094Z,20.95
2023-01-27T09:17:46.302Z,21.09
2023-01-27T09:22:53.492Z,21.25
2023-01-27T09:28:00.637Z,21.38
2023-01-27T09:33:07.955Z,21.50
2023-01-27T09:38:15.170Z,21.62
2023-01-27T09:43:22.351Z,21.77
2023-01-27T09:48:29.500Z,21.86
2023-01-27T09:53:36.740Z,21.92
2023-01-27T09:58:43.902Z,22.00
2023-01-27T10:03:51.092Z,22.09
2023-01-27T10:08:58.279Z,22.19
2023-01-27T10:14:05.436Z,22.26
2023-01-27T10:19:12.628Z,22.34
2023-01-27T10:24:20.051Z,22.36
2023-01-27T10:29:27.178Z,22.35
2023-01-27T10:34:34.382Z,22.38
2023-01-27T10:39:41.586Z,22.45
2023-01-27T10:44:48.763Z,22.42
2023-01-27T10:49:55.917Z,22.48
2023-01-27T10:55:03.112Z,22.50
2023-01-27T11:00:37.943Z,22.55
2023-01-27T11:05:17.627Z,22.56
2023-01-27T11:10:24.901Z,22.62
2023-01-27T11:15:32.148Z,22.66
2023-01-27T11:20:39.321Z,22.70
2023-01-27T11:25:46.800Z,22.73
2023-01-27T11:30:54.215Z,22.73
2023-01-27T11:36:01.494Z,22.76
2023-01-27T11:41:08.703Z,22.82
2023-01-27T11:46:16.161Z,22.87
2023-01-27T11:51:23.282Z,22.91
2023-01-27T11:56:30.457Z,22.96
2023-01-27T12:01:37.622Z,22.98
2023-01-27T12:06:44.910Z,22.97
2023-01-27T12:11:52.136Z,23.00
2023-01-27T12:16:59.305Z,22.99
2023-01-27T12:22:06.470Z,22.99
2023-01-27T12:27:13.686Z,23.02
2023-01-27T12:32:20.846Z,23.01
2023-01-27T12:37:28.222Z,23.01
2023-01-27T12:42:35.443Z,23.05
2023-01-27T12:47:42.566Z,23.09
2023-01-27T12:52:49.757Z,23.16
2023-01-27T12:57:56.964Z,23.22
2023-01-27T13:03:04.127Z,23.25
2023-01-27T13:08:11.317Z,23.26
2023-01-27T13:13:18.617Z,23.27
2023-01-27T13:18:25.786Z,23.30
2023-01-27T13:23:32.961Z,23.28
2023-01-27T13:28:52.305Z,23.20
2023-01-27T13:33:47.952Z,23.31
2023-01-27T13:38:55.180Z,23.49
2023-01-27T13:44:02.383Z,23.55
2023-01-27T13:49:09.583Z,23.63
2023-01-27T13:54:16.784Z,23.68
2023-01-27T13:59:23.996Z,23.71
2023-01-27T14:04:31.224Z,23.77
2023-01-27T14:09:40.612Z,23.93
2023-01-27T14:14:57.389Z,23.92
2023-01-27T14:19:52.899Z,24.03
2023-01-27T14:25:00.085Z,23.84
2023-01-27T14:30:07.636Z,23.76
2023-01-27T14:35:14.567Z,23.84
2023-01-27T14:40:21.799Z,23.72
2023-01-27T14:45:29.054Z,23.69
2023-01-27T14:50:36.225Z,23.68
2023-01-27T14:55:43.499Z,23.70
2023-01-27T15:00:50.831Z,23.70
2023-01-27T15:05:57.867Z,23.68
2023-01-27T15:11:05.053Z,23.71
2023-01-27T15:16:12.332Z,23.65
2023-01-27T15:21:19.459Z,23.80
2023-01-27T15:26:26.700Z,23.81
2023-01-27T15:31:34.081Z,23.91
2023-01-27T15:36:41.126Z,23.73
2023-01-27T15:41:48.317Z,23.66
2023-01-27T15:46:55.570Z,23.59
2023-01-27T15:52:02.752Z,23.55
2023-01-27T15:57:09.935Z,23.54
2023-01-27T16:02:17.174Z,23.62
2023-01-27T16:07:24.242Z,23.70
2023-01-27T16:12:31.471Z,23.80
2023-01-27T16:17:38.698Z,23.85
2023-01-27T16:22:45.848Z,23.92
2023-01-27T16:27:53.067Z,23.94
2023-01-27T16:33:00.249Z,23.98
2023-01-27T16:38:07.357Z,24.09
2023-01-27T16:43:14.616Z,24.12
2023-01-27T16:48:21.879Z,24.17
2023-01-27T16:53:29.048Z,24.03
2023-01-27T16:58:46.038Z,23.98
2023-01-27T17:03:43.465Z,23.94
2023-01-27T17:08:50.614Z,23.94
2023-01-27T17:13:57.986Z,23.94
2023-01-27T17:19:05.502Z,23.98
2023-01-27T17:24:12.729Z,24.02
2023-01-27T17:29:19.858Z,24.04
2023-01-27T17:34:27.049Z,24.06
2023-01-27T17:39:34.202Z,24.15
2023-01-27T17:44:41.368Z,24.13
2023-01-27T17:49:48.856Z,24.12
2023-01-27T17:54:56.177Z,24.20
2023-01-27T18:00:03.354Z,24.33
2023-01-27T18:05:10.907Z,24.53
2023-01-27T18:10:18.405Z,24.65
2023-01-27T18:15:25.698Z,24.65
2023-01-27T18:20:33.212Z,24.63
2023-01-27T18:25:40.627Z,24.61
2023-01-27T18:30:48.121Z,24.61
2023-01-27T18:35:55.856Z,24.60
2023-01-27T18:41:03.439Z,24.65
2023-01-27T18:46:11.154Z,24.74
2023-01-27T18:51:18.530Z,24.80
2023-01-27T18:56:25.861Z,24.87
2023-01-27T19:01:35.146Z,24.92
2023-01-27T19:06:40.617Z,24.91
2023-01-27T19:11:49.137Z,24.85
2023-01-27T19:16:56.451Z,24.78
2023-01-27T19:22:03.868Z,24.74
2023-01-27T19:27:11.315Z,24.79
2023-01-27T19:32:18.875Z,24.80
2023-01-27T19:37:27.558Z,24.81
2023-01-27T19:42:35.125Z,24.80
2023-01-27T19:47:42.790Z,24.80
2023-01-27T19:52:50.208Z,24.83
2023-01-27T19:57:58.274Z,24.88
2023-01-27T20:03:05.781Z,24.86
2023-01-27T20:08:13.519Z,24.79
2023-01-27T20:13:22.036Z,24.73
2023-01-27T20:18:29.857Z,24.58
2023-01-27T20:23:37.511Z,24.56
2023-01-27T20:28:45.296Z,24.54
2023-01-27T20:33:52.803Z,24.78
2023-01-27T20:39:00.438Z,24.90
2023-01-27T20:44:07.986Z,24.99
2023-01-27T20:49:15.642Z,25.02
2023-01-27T20:54:23.234Z,25.09
2023-01-27T20:59:30.996Z,25.11
2023-01-27T21:04:38.392Z,25.17
2023-01-27T21:09:45.678Z,25.27
2023-01-27T21:14:53.208Z,25.31
2023-01-27T21:20:00.563Z,25.32
2023-01-27T21:25:07.866Z,25.37
2023-01-27T21:30:15.123Z,25.38
2023-01-27T21:35:22.296Z,25.26
2023-01-27T21:40:29.587Z,25.10
2023-01-27T21:45:37.047Z,24.99
2023-01-27T21:50:44.428Z,24.95
2023-01-27T21:55:51.690Z,24.88
2023-01-27T22:00:58.931Z,24.84
2023-01-27T22:06:06.101Z,24.83
2023-01-27T22:11:13.310Z,24.87
2023-01-27T22:16:20.512Z,24.97
2023-01-27T22:21:27.671Z,24.99
2023-01-27T22:26:34.846Z,24.90
2023-01-27T22:31:42.006Z,24.82
2023-01-27T22:36:49.199Z,24.81
2023-01-27T22:41:56.434Z,24.74
2023-01-27T22:47:03.673Z,24.69
2023-01-27T22:52:10.934Z,24.67
2023-01-27T22:57:18.149Z,24.71
2023-01-27T23:02:25.389Z,24.84
2023-01-27T23:07:32.608Z,24.87
2023-01-27T23:12:39.870Z,24.84
2023-01-27T23:17:47.077Z,24.81
2023-01-27T23:22:54.274Z,24.74
2023-01-27T23:28:01.478Z,24.79
2023-01-27T23:33:08.681Z,24.78
2023-01-27T23:38:31.495Z,24.80
2023-01-27T23:43:23.110Z,24.85
2023-01-27T23:48:30.373Z,24.85
2023-01-27T23:53:37.593Z,24.84
2023-01-27T23:58:44.805Z,24.81
